sensor_id;sensor_type;location;lat;lon;timestamp;P1;durP1;ratioP1;P2;durP2;ratioP2
76475;SDS011;65308;50.078;14.854;2023-12-14T00:00:34;52.95;;;17.60;;
76475;SDS011;65308;50.078;14.854;2023-12-14T00:03:02;46.63;;;16.27;;
76475;SDS011;65308;50.078;14.854;2023-12-14T00:07:55;37.40;;;14.68;;
76475;SDS011;65308;50.078;14.854;2023-12-14T00:10:21;37.28;;;15.38;;
76475;SDS011;65308;50.078;14.854;2023-12-14T00:12:48;40.13;;;13.27;;
76475;SDS011;65308;50.078;14.854;2023-12-14T00:17:42;42.50;;;15.52;;
76475;SDS011;65308;50.078;14.854;2023-12-14T00:20:10;39.97;;;14.93;;
76475;SDS011;65308;50.078;14.854;2023-12-14T00:22:36;40.13;;;15.07;;
76475;SDS011;65308;50.078;14.854;2023-12-14T00:25:04;40.70;;;14.93;;
76475;SDS011;65308;50.078;14.854;2023-12-14T00:27:30;44.33;;;15.65;;
76475;SDS011;65308;50.078;14.854;2023-12-14T00:29:57;36.55;;;13.45;;
76475;SDS011;65308;50.078;14.854;2023-12-14T00:32:23;42.50;;;13.38;;
76475;SDS011;65308;50.078;14.854;2023-12-14T00:34:49;39.42;;;13.57;;
76475;SDS011;65308;50.078;14.854;2023-12-14T00:37:17;36.85;;;12.80;;
76475;SDS011;65308;50.078;14.854;2023-12-14T00:42:10;43.05;;;13.57;;
76475;SDS011;65308;50.078;14.854;2023-12-14T00:44:37;49.63;;;14.90;;
76475;SDS011;65308;50.078;14.854;2023-12-14T00:47:03;38.47;;;13.90;;
76475;SDS011;65308;50.078;14.854;2023-12-14T00:49:30;41.20;;;14.23;;
76475;SDS011;65308;50.078;14.854;2023-12-14T00:51:56;36.33;;;14.25;;
76475;SDS011;65308;50.078;14.854;2023-12-14T00:54:25;40.83;;;13.65;;
76475;SDS011;65308;50.078;14.854;2023-12-14T00:59:17;39.58;;;12.57;;
76475;SDS011;65308;50.078;14.854;2023-12-14T01:01:44;35.20;;;13.93;;
76475;SDS011;65308;50.078;14.854;2023-12-14T01:04:10;37.75;;;13.80;;
76475;SDS011;65308;50.078;14.854;2023-12-14T01:06:37;37.50;;;13.40;;
76475;SDS011;65308;50.078;14.854;2023-12-14T01:09:03;41.05;;;14.07;;
76475;SDS011;65308;50.078;14.854;2023-12-14T01:11:31;47.53;;;14.45;;
76475;SDS011;65308;50.078;14.854;2023-12-14T01:13:57;34.58;;;13.82;;
76475;SDS011;65308;50.078;14.854;2023-12-14T01:16:25;39.13;;;14.50;;
76475;SDS011;65308;50.078;14.854;2023-12-14T01:18:51;43.90;;;13.07;;
76475;SDS011;65308;50.078;14.854;2023-12-14T01:21:18;36.58;;;12.70;;
76475;SDS011;65308;50.078;14.854;2023-12-14T01:23:44;39.13;;;13.40;;
76475;SDS011;65308;50.078;14.854;2023-12-14T01:26:11;34.60;;;13.80;;
76475;SDS011;65308;50.078;14.854;2023-12-14T01:28:38;43.88;;;13.55;;
76475;SDS011;65308;50.078;14.854;2023-12-14T01:33:31;35.97;;;12.68;;
76475;SDS011;65308;50.078;14.854;2023-12-14T01:35:57;35.10;;;13.88;;
76475;SDS011;65308;50.078;14.854;2023-12-14T01:38:24;38.70;;;14.45;;
76475;SDS011;65308;50.078;14.854;2023-12-14T01:40:50;41.35;;;14.40;;
76475;SDS011;65308;50.078;14.854;2023-12-14T01:43:16;40.63;;;14.38;;
76475;SDS011;65308;50.078;14.854;2023-12-14T01:45:44;44.00;;;14.43;;
76475;SDS011;65308;50.078;14.854;2023-12-14T01:48:10;40.58;;;14.10;;
76475;SDS011;65308;50.078;14.854;2023-12-14T01:50:37;37.97;;;14.63;;
76475;SDS011;65308;50.078;14.854;2023-12-14T01:53:03;35.03;;;13.27;;
76475;SDS011;65308;50.078;14.854;2023-12-14T01:55:30;39.17;;;14.02;;
76475;SDS011;65308;50.078;14.854;2023-12-14T01:57:56;44.15;;;13.25;;
76475;SDS011;65308;50.078;14.854;2023-12-14T02:00:25;33.83;;;11.82;;
76475;SDS011;65308;50.078;14.854;2023-12-14T02:02:55;33.10;;;14.10;;
76475;SDS011;65308;50.078;14.854;2023-12-14T02:05:21;37.45;;;13.70;;
76475;SDS011;65308;50.078;14.854;2023-12-14T02:07:48;39.58;;;12.95;;
76475;SDS011;65308;50.078;14.854;2023-12-14T02:10:15;44.22;;;14.05;;
76475;SDS011;65308;50.078;14.854;2023-12-14T02:12:41;47.22;;;12.50;;
76475;SDS011;65308;50.078;14.854;2023-12-14T02:15:08;34.15;;;11.45;;
76475;SDS011;65308;50.078;14.854;2023-12-14T02:17:35;57.00;;;12.40;;
76475;SDS011;65308;50.078;14.854;2023-12-14T02:20:03;34.60;;;11.57;;
76475;SDS011;65308;50.078;14.854;2023-12-14T02:22:33;43.28;;;12.45;;
76475;SDS011;65308;50.078;14.854;2023-12-14T02:25:00;31.98;;;13.52;;
76475;SDS011;65308;50.078;14.854;2023-12-14T02:27:26;51.33;;;13.75;;
76475;SDS011;65308;50.078;14.854;2023-12-14T02:29:53;55.38;;;13.98;;
76475;SDS011;65308;50.078;14.854;2023-12-14T02:32:19;40.55;;;11.10;;
76475;SDS011;65308;50.078;14.854;2023-12-14T02:34:46;32.83;;;11.55;;
76475;SDS011;65308;50.078;14.854;2023-12-14T02:37:12;31.00;;;11.18;;
76475;SDS011;65308;50.078;14.854;2023-12-14T02:39:40;24.35;;;10.88;;
76475;SDS011;65308;50.078;14.854;2023-12-14T02:44:33;28.85;;;10.13;;
76475;SDS011;65308;50.078;14.854;2023-12-14T02:46:59;26.67;;;10.38;;
76475;SDS011;65308;50.078;14.854;2023-12-14T02:49:26;27.60;;;10.00;;
76475;SDS011;65308;50.078;14.854;2023-12-14T02:51:52;36.00;;;11.35;;
76475;SDS011;65308;50.078;14.854;2023-12-14T02:54:19;36.47;;;12.05;;
76475;SDS011;65308;50.078;14.854;2023-12-14T02:56:47;31.75;;;12.18;;
76475;SDS011;65308;50.078;14.854;2023-12-14T03:01:39;28.90;;;11.98;;
76475;SDS011;65308;50.078;14.854;2023-12-14T03:04:06;34.50;;;12.52;;
76475;SDS011;65308;50.078;14.854;2023-12-14T03:06:33;30.55;;;12.43;;
76475;SDS011;65308;50.078;14.854;2023-12-14T03:08:59;28.90;;;11.85;;
76475;SDS011;65308;50.078;14.854;2023-12-14T03:11:26;27.25;;;11.48;;
76475;SDS011;65308;50.078;14.854;2023-12-14T03:13:53;35.78;;;13.23;;
76475;SDS011;65308;50.078;14.854;2023-12-14T03:16:20;28.95;;;12.07;;
76475;SDS011;65308;50.078;14.854;2023-12-14T03:18:47;31.63;;;12.27;;
76475;SDS011;65308;50.078;14.854;2023-12-14T03:21:17;24.50;;;11.55;;
76475;SDS011;65308;50.078;14.854;2023-12-14T03:23:43;28.27;;;11.18;;
76475;SDS011;65308;50.078;14.854;2023-12-14T03:26:10;32.65;;;11.93;;
76475;SDS011;65308;50.078;14.854;2023-12-14T03:28:36;30.77;;;11.88;;
76475;SDS011;65308;50.078;14.854;2023-12-14T03:31:04;28.65;;;11.95;;
76475;SDS011;65308;50.078;14.854;2023-12-14T03:33:31;30.33;;;11.20;;
76475;SDS011;65308;50.078;14.854;2023-12-14T03:35:57;28.23;;;11.57;;
76475;SDS011;65308;50.078;14.854;2023-12-14T03:38:25;30.15;;;12.32;;
76475;SDS011;65308;50.078;14.854;2023-12-14T03:40:51;30.50;;;11.93;;
76475;SDS011;65308;50.078;14.854;2023-12-14T03:43:18;30.02;;;12.38;;
76475;SDS011;65308;50.078;14.854;2023-12-14T03:45:44;28.83;;;11.85;;
76475;SDS011;65308;50.078;14.854;2023-12-14T03:48:12;27.95;;;11.75;;
76475;SDS011;65308;50.078;14.854;2023-12-14T03:53:05;27.55;;;12.30;;
76475;SDS011;65308;50.078;14.854;2023-12-14T03:55:32;29.98;;;12.20;;
76475;SDS011;65308;50.078;14.854;2023-12-14T03:57:58;28.85;;;11.88;;
76475;SDS011;65308;50.078;14.854;2023-12-14T04:00:25;29.63;;;13.02;;
76475;SDS011;65308;50.078;14.854;2023-12-14T04:02:51;24.63;;;11.88;;
76475;SDS011;65308;50.078;14.854;2023-12-14T04:05:19;25.77;;;11.10;;
76475;SDS011;65308;50.078;14.854;2023-12-14T04:07:46;22.33;;;10.73;;
76475;SDS011;65308;50.078;14.854;2023-12-14T04:10:12;24.05;;;11.68;;
76475;SDS011;65308;50.078;14.854;2023-12-14T04:12:39;21.88;;;10.52;;
76475;SDS011;65308;50.078;14.854;2023-12-14T04:15:06;22.80;;;10.43;;
76475;SDS011;65308;50.078;14.854;2023-12-14T04:17:33;22.35;;;10.05;;
76475;SDS011;65308;50.078;14.854;2023-12-14T04:20:00;25.25;;;11.80;;
76475;SDS011;65308;50.078;14.854;2023-12-14T04:22:29;25.23;;;10.90;;
76475;SDS011;65308;50.078;14.854;2023-12-14T04:24:55;20.33;;;10.15;;
76475;SDS011;65308;50.078;14.854;2023-12-14T04:27:22;22.38;;;9.63;;
76475;SDS011;65308;50.078;14.854;2023-12-14T04:29:52;26.25;;;10.95;;
76475;SDS011;65308;50.078;14.854;2023-12-14T04:32:19;24.13;;;10.27;;
76475;SDS011;65308;50.078;14.854;2023-12-14T04:34:46;26.33;;;9.63;;
76475;SDS011;65308;50.078;14.854;2023-12-14T04:37:13;22.92;;;9.85;;
76475;SDS011;65308;50.078;14.854;2023-12-14T04:39:40;20.45;;;9.73;;
76475;SDS011;65308;50.078;14.854;2023-12-14T04:44:33;18.45;;;8.50;;
76475;SDS011;65308;50.078;14.854;2023-12-14T04:46:59;22.30;;;9.48;;
76475;SDS011;65308;50.078;14.854;2023-12-14T04:49:26;20.20;;;8.52;;
76475;SDS011;65308;50.078;14.854;2023-12-14T04:51:52;19.67;;;8.35;;
76475;SDS011;65308;50.078;14.854;2023-12-14T04:54:19;18.63;;;9.50;;
76475;SDS011;65308;50.078;14.854;2023-12-14T04:56:46;22.00;;;9.35;;
76475;SDS011;65308;50.078;14.854;2023-12-14T05:01:39;20.02;;;8.40;;
76475;SDS011;65308;50.078;14.854;2023-12-14T05:04:05;19.52;;;7.80;;
76475;SDS011;65308;50.078;14.854;2023-12-14T05:06:32;22.20;;;8.40;;
76475;SDS011;65308;50.078;14.854;2023-12-14T05:11:29;21.10;;;9.18;;
76475;SDS011;65308;50.078;14.854;2023-12-14T05:13:57;22.42;;;8.40;;
76475;SDS011;65308;50.078;14.854;2023-12-14T05:16:23;23.05;;;9.27;;
76475;SDS011;65308;50.078;14.854;2023-12-14T05:18:51;19.42;;;8.30;;
76475;SDS011;65308;50.078;14.854;2023-12-14T05:21:18;20.65;;;9.52;;
76475;SDS011;65308;50.078;14.854;2023-12-14T05:23:44;21.02;;;10.35;;
76475;SDS011;65308;50.078;14.854;2023-12-14T05:26:11;24.83;;;11.88;;
76475;SDS011;65308;50.078;14.854;2023-12-14T05:28:38;29.98;;;12.13;;
76475;SDS011;65308;50.078;14.854;2023-12-14T05:31:06;29.42;;;11.65;;
76475;SDS011;65308;50.078;14.854;2023-12-14T05:36:08;20.40;;;9.30;;
76475;SDS011;65308;50.078;14.854;2023-12-14T05:38:35;25.67;;;10.98;;
76475;SDS011;65308;50.078;14.854;2023-12-14T05:41:06;21.42;;;10.00;;
76475;SDS011;65308;50.078;14.854;2023-12-14T05:43:32;22.88;;;9.90;;
76475;SDS011;65308;50.078;14.854;2023-12-14T05:45:59;20.83;;;10.40;;
76475;SDS011;65308;50.078;14.854;2023-12-14T05:48:27;18.77;;;8.88;;
76475;SDS011;65308;50.078;14.854;2023-12-14T05:53:20;21.40;;;8.75;;
76475;SDS011;65308;50.078;14.854;2023-12-14T05:55:52;20.50;;;9.27;;
76475;SDS011;65308;50.078;14.854;2023-12-14T05:58:19;22.88;;;8.60;;
76475;SDS011;65308;50.078;14.854;2023-12-14T06:00:49;18.27;;;8.65;;
76475;SDS011;65308;50.078;14.854;2023-12-14T06:03:23;18.08;;;8.65;;
76475;SDS011;65308;50.078;14.854;2023-12-14T06:05:51;20.95;;;8.40;;
76475;SDS011;65308;50.078;14.854;2023-12-14T06:10:44;18.10;;;8.00;;
76475;SDS011;65308;50.078;14.854;2023-12-14T06:13:10;19.40;;;8.55;;
76475;SDS011;65308;50.078;14.854;2023-12-14T06:15:37;22.85;;;10.65;;
76475;SDS011;65308;50.078;14.854;2023-12-14T06:18:04;23.70;;;10.43;;
76475;SDS011;65308;50.078;14.854;2023-12-14T06:20:31;20.52;;;9.15;;
76475;SDS011;65308;50.078;14.854;2023-12-14T06:22:59;20.23;;;9.73;;
76475;SDS011;65308;50.078;14.854;2023-12-14T06:25:25;22.05;;;10.20;;
76475;SDS011;65308;50.078;14.854;2023-12-14T06:27:52;21.55;;;10.27;;
76475;SDS011;65308;50.078;14.854;2023-12-14T06:30:18;25.60;;;9.60;;
76475;SDS011;65308;50.078;14.854;2023-12-14T06:32:47;27.05;;;10.90;;
76475;SDS011;65308;50.078;14.854;2023-12-14T06:35:14;22.33;;;10.32;;
76475;SDS011;65308;50.078;14.854;2023-12-14T06:37:42;25.05;;;10.07;;
76475;SDS011;65308;50.078;14.854;2023-12-14T06:40:11;24.90;;;10.20;;
76475;SDS011;65308;50.078;14.854;2023-12-14T06:42:37;28.08;;;10.27;;
76475;SDS011;65308;50.078;14.854;2023-12-14T06:45:04;24.95;;;12.43;;
76475;SDS011;65308;50.078;14.854;2023-12-14T06:47:31;25.17;;;10.98;;
76475;SDS011;65308;50.078;14.854;2023-12-14T06:49:58;23.13;;;10.23;;
76475;SDS011;65308;50.078;14.854;2023-12-14T06:52:24;26.13;;;11.73;;
76475;SDS011;65308;50.078;14.854;2023-12-14T06:54:53;24.35;;;10.88;;
76475;SDS011;65308;50.078;14.854;2023-12-14T06:57:21;25.27;;;11.13;;
76475;SDS011;65308;50.078;14.854;2023-12-14T06:59:48;26.50;;;10.75;;
76475;SDS011;65308;50.078;14.854;2023-12-14T07:02:14;23.67;;;11.20;;
76475;SDS011;65308;50.078;14.854;2023-12-14T07:04:41;27.50;;;11.73;;
76475;SDS011;65308;50.078;14.854;2023-12-14T07:07:07;27.50;;;10.57;;
76475;SDS011;65308;50.078;14.854;2023-12-14T07:09:34;27.52;;;11.55;;
76475;SDS011;65308;50.078;14.854;2023-12-14T07:12:01;26.50;;;11.85;;
76475;SDS011;65308;50.078;14.854;2023-12-14T07:14:29;25.70;;;11.85;;
76475;SDS011;65308;50.078;14.854;2023-12-14T07:16:56;27.27;;;11.80;;
76475;SDS011;65308;50.078;14.854;2023-12-14T07:19:22;26.02;;;10.95;;
76475;SDS011;65308;50.078;14.854;2023-12-14T07:21:49;24.38;;;10.40;;
76475;SDS011;65308;50.078;14.854;2023-12-14T07:24:15;26.38;;;11.00;;
76475;SDS011;65308;50.078;14.854;2023-12-14T07:26:42;28.48;;;12.13;;
76475;SDS011;65308;50.078;14.854;2023-12-14T07:29:09;26.42;;;10.98;;
76475;SDS011;65308;50.078;14.854;2023-12-14T07:31:37;24.02;;;11.15;;
76475;SDS011;65308;50.078;14.854;2023-12-14T07:34:03;26.20;;;10.45;;
76475;SDS011;65308;50.078;14.854;2023-12-14T07:36:30;28.95;;;11.18;;
76475;SDS011;65308;50.078;14.854;2023-12-14T07:38:57;23.02;;;10.60;;
76475;SDS011;65308;50.078;14.854;2023-12-14T07:41:25;23.25;;;9.95;;
76475;SDS011;65308;50.078;14.854;2023-12-14T07:43:54;24.17;;;10.90;;
76475;SDS011;65308;50.078;14.854;2023-12-14T07:46:21;19.55;;;9.68;;
76475;SDS011;65308;50.078;14.854;2023-12-14T07:48:49;19.05;;;9.35;;
76475;SDS011;65308;50.078;14.854;2023-12-14T07:53:42;18.85;;;10.25;;
76475;SDS011;65308;50.078;14.854;2023-12-14T07:56:09;21.73;;;9.48;;
76475;SDS011;65308;50.078;14.854;2023-12-14T07:58:35;19.42;;;9.95;;
76475;SDS011;65308;50.078;14.854;2023-12-14T08:01:01;19.02;;;9.45;;
76475;SDS011;65308;50.078;14.854;2023-12-14T08:03:28;18.58;;;9.23;;
76475;SDS011;65308;50.078;14.854;2023-12-14T08:05:56;20.08;;;9.82;;
76475;SDS011;65308;50.078;14.854;2023-12-14T08:10:50;20.27;;;10.20;;
76475;SDS011;65308;50.078;14.854;2023-12-14T08:13:17;20.67;;;9.80;;
76475;SDS011;65308;50.078;14.854;2023-12-14T08:15:44;22.38;;;10.65;;
76475;SDS011;65308;50.078;14.854;2023-12-14T08:18:12;22.90;;;11.20;;
76475;SDS011;65308;50.078;14.854;2023-12-14T08:20:39;21.35;;;11.07;;
76475;SDS011;65308;50.078;14.854;2023-12-14T08:23:07;20.13;;;10.35;;
76475;SDS011;65308;50.078;14.854;2023-12-14T08:25:34;18.35;;;10.25;;
76475;SDS011;65308;50.078;14.854;2023-12-14T08:28:01;19.27;;;9.45;;
76475;SDS011;65308;50.078;14.854;2023-12-14T08:30:28;17.88;;;8.85;;
76475;SDS011;65308;50.078;14.854;2023-12-14T08:32:55;16.73;;;8.52;;
76475;SDS011;65308;50.078;14.854;2023-12-14T08:35:22;15.80;;;8.90;;
76475;SDS011;65308;50.078;14.854;2023-12-14T08:40:51;17.08;;;8.38;;
76475;SDS011;65308;50.078;14.854;2023-12-14T08:43:31;17.10;;;9.02;;
76475;SDS011;65308;50.078;14.854;2023-12-14T08:46:01;16.63;;;8.70;;
76475;SDS011;65308;50.078;14.854;2023-12-14T08:48:34;15.50;;;8.93;;
76475;SDS011;65308;50.078;14.854;2023-12-14T08:51:17;17.05;;;8.77;;
76475;SDS011;65308;50.078;14.854;2023-12-14T08:53:51;15.40;;;8.40;;
76475;SDS011;65308;50.078;14.854;2023-12-14T08:56:32;17.42;;;9.18;;
76475;SDS011;65308;50.078;14.854;2023-12-14T08:58:58;15.40;;;8.70;;
76475;SDS011;65308;50.078;14.854;2023-12-14T09:01:47;14.70;;;8.48;;
76475;SDS011;65308;50.078;14.854;2023-12-14T09:04:21;16.77;;;8.38;;
76475;SDS011;65308;50.078;14.854;2023-12-14T09:06:57;16.30;;;8.80;;
76475;SDS011;65308;50.078;14.854;2023-12-14T09:09:23;18.08;;;9.45;;
76475;SDS011;65308;50.078;14.854;2023-12-14T09:11:52;19.13;;;9.13;;
76475;SDS011;65308;50.078;14.854;2023-12-14T09:14:19;16.00;;;8.25;;
76475;SDS011;65308;50.078;14.854;2023-12-14T09:16:45;17.15;;;8.45;;
76475;SDS011;65308;50.078;14.854;2023-12-14T09:19:12;15.63;;;8.15;;
76475;SDS011;65308;50.078;14.854;2023-12-14T09:21:39;17.35;;;8.43;;
76475;SDS011;65308;50.078;14.854;2023-12-14T09:24:06;16.27;;;8.75;;
76475;SDS011;65308;50.078;14.854;2023-12-14T09:26:32;14.95;;;8.88;;
76475;SDS011;65308;50.078;14.854;2023-12-14T09:29:01;17.30;;;9.00;;
76475;SDS011;65308;50.078;14.854;2023-12-14T09:31:29;16.20;;;8.20;;
76475;SDS011;65308;50.078;14.854;2023-12-14T09:33:55;15.43;;;8.43;;
76475;SDS011;65308;50.078;14.854;2023-12-14T09:36:26;16.83;;;8.45;;
76475;SDS011;65308;50.078;14.854;2023-12-14T09:38:52;17.45;;;9.32;;
76475;SDS011;65308;50.078;14.854;2023-12-14T09:41:19;17.60;;;9.82;;
76475;SDS011;65308;50.078;14.854;2023-12-14T09:43:45;16.33;;;9.05;;
76475;SDS011;65308;50.078;14.854;2023-12-14T09:46:13;16.23;;;8.65;;
76475;SDS011;65308;50.078;14.854;2023-12-14T09:48:42;17.90;;;10.23;;
76475;SDS011;65308;50.078;14.854;2023-12-14T09:51:08;14.88;;;8.82;;
76475;SDS011;65308;50.078;14.854;2023-12-14T09:53:36;14.35;;;8.13;;
76475;SDS011;65308;50.078;14.854;2023-12-14T09:56:02;14.70;;;7.43;;
76475;SDS011;65308;50.078;14.854;2023-12-14T09:58:31;13.55;;;8.02;;
76475;SDS011;65308;50.078;14.854;2023-12-14T10:00:57;13.73;;;7.55;;
76475;SDS011;65308;50.078;14.854;2023-12-14T10:03:27;12.07;;;6.88;;
76475;SDS011;65308;50.078;14.854;2023-12-14T10:05:54;14.85;;;7.57;;
76475;SDS011;65308;50.078;14.854;2023-12-14T10:08:21;13.45;;;7.35;;
76475;SDS011;65308;50.078;14.854;2023-12-14T10:10:48;12.85;;;7.78;;
76475;SDS011;65308;50.078;14.854;2023-12-14T10:13:16;14.52;;;7.80;;
76475;SDS011;65308;50.078;14.854;2023-12-14T10:15:43;12.38;;;7.40;;
76475;SDS011;65308;50.078;14.854;2023-12-14T10:18:09;15.45;;;8.18;;
76475;SDS011;65308;50.078;14.854;2023-12-14T10:20:37;14.40;;;8.18;;
76475;SDS011;65308;50.078;14.854;2023-12-14T10:23:06;13.18;;;7.40;;
76475;SDS011;65308;50.078;14.854;2023-12-14T10:25:35;16.85;;;8.02;;
76475;SDS011;65308;50.078;14.854;2023-12-14T10:28:01;13.80;;;8.63;;
76475;SDS011;65308;50.078;14.854;2023-12-14T10:30:28;13.35;;;8.32;;
76475;SDS011;65308;50.078;14.854;2023-12-14T10:32:55;12.40;;;7.28;;
76475;SDS011;65308;50.078;14.854;2023-12-14T10:35:22;13.18;;;7.90;;
76475;SDS011;65308;50.078;14.854;2023-12-14T10:37:50;11.82;;;7.38;;
76475;SDS011;65308;50.078;14.854;2023-12-14T10:40:17;12.90;;;8.05;;
76475;SDS011;65308;50.078;14.854;2023-12-14T10:42:44;13.80;;;8.32;;
76475;SDS011;65308;50.078;14.854;2023-12-14T10:45:14;12.18;;;7.43;;
76475;SDS011;65308;50.078;14.854;2023-12-14T10:47:45;14.27;;;8.52;;
76475;SDS011;65308;50.078;14.854;2023-12-14T10:50:12;11.27;;;7.65;;
76475;SDS011;65308;50.078;14.854;2023-12-14T10:52:39;14.73;;;9.18;;
76475;SDS011;65308;50.078;14.854;2023-12-14T10:55:07;15.88;;;8.75;;
76475;SDS011;65308;50.078;14.854;2023-12-14T10:57:36;15.93;;;8.93;;
76475;SDS011;65308;50.078;14.854;2023-12-14T11:00:03;15.68;;;8.13;;
76475;SDS011;65308;50.078;14.854;2023-12-14T11:02:37;14.27;;;8.88;;
76475;SDS011;65308;50.078;14.854;2023-12-14T11:05:03;13.05;;;8.38;;
76475;SDS011;65308;50.078;14.854;2023-12-14T11:07:47;13.38;;;7.85;;
76475;SDS011;65308;50.078;14.854;2023-12-14T11:10:15;12.35;;;7.30;;
76475;SDS011;65308;50.078;14.854;2023-12-14T11:12:50;12.63;;;7.45;;
76475;SDS011;65308;50.078;14.854;2023-12-14T11:15:17;13.55;;;7.32;;
76475;SDS011;65308;50.078;14.854;2023-12-14T11:17:44;12.30;;;7.13;;
76475;SDS011;65308;50.078;14.854;2023-12-14T11:20:30;11.98;;;6.57;;
76475;SDS011;65308;50.078;14.854;2023-12-14T11:22:57;10.70;;;6.18;;
76475;SDS011;65308;50.078;14.854;2023-12-14T11:25:34;10.95;;;6.32;;
76475;SDS011;65308;50.078;14.854;2023-12-14T11:30:27;11.07;;;5.97;;
76475;SDS011;65308;50.078;14.854;2023-12-14T11:32:54;10.98;;;6.15;;
76475;SDS011;65308;50.078;14.854;2023-12-14T11:35:20;10.50;;;6.55;;
76475;SDS011;65308;50.078;14.854;2023-12-14T11:37:47;11.82;;;5.90;;
76475;SDS011;65308;50.078;14.854;2023-12-14T11:40:13;10.77;;;6.78;;
76475;SDS011;65308;50.078;14.854;2023-12-14T11:42:43;12.68;;;6.93;;
76475;SDS011;65308;50.078;14.854;2023-12-14T11:45:11;13.70;;;7.30;;
76475;SDS011;65308;50.078;14.854;2023-12-14T11:47:37;16.30;;;7.80;;
76475;SDS011;65308;50.078;14.854;2023-12-14T11:50:05;15.07;;;7.43;;
76475;SDS011;65308;50.078;14.854;2023-12-14T11:52:31;15.93;;;7.78;;
76475;SDS011;65308;50.078;14.854;2023-12-14T11:54:58;14.10;;;7.18;;
76475;SDS011;65308;50.078;14.854;2023-12-14T11:57:28;11.05;;;6.53;;
76475;SDS011;65308;50.078;14.854;2023-12-14T11:59:56;13.02;;;7.25;;
76475;SDS011;65308;50.078;14.854;2023-12-14T12:02:24;13.02;;;7.15;;
76475;SDS011;65308;50.078;14.854;2023-12-14T12:04:51;12.50;;;7.05;;
76475;SDS011;65308;50.078;14.854;2023-12-14T12:07:18;11.57;;;6.38;;
76475;SDS011;65308;50.078;14.854;2023-12-14T12:12:12;12.98;;;6.20;;
76475;SDS011;65308;50.078;14.854;2023-12-14T12:14:39;14.23;;;7.47;;
76475;SDS011;65308;50.078;14.854;2023-12-14T12:17:08;11.63;;;6.18;;
76475;SDS011;65308;50.078;14.854;2023-12-14T12:19:35;13.07;;;6.57;;
76475;SDS011;65308;50.078;14.854;2023-12-14T12:22:02;12.52;;;7.20;;
76475;SDS011;65308;50.078;14.854;2023-12-14T12:24:29;10.30;;;6.07;;
76475;SDS011;65308;50.078;14.854;2023-12-14T12:26:56;11.88;;;6.78;;
76475;SDS011;65308;50.078;14.854;2023-12-14T12:29:22;15.32;;;8.02;;
76475;SDS011;65308;50.078;14.854;2023-12-14T12:31:49;11.80;;;7.43;;
76475;SDS011;65308;50.078;14.854;2023-12-14T12:34:18;12.07;;;6.30;;
76475;SDS011;65308;50.078;14.854;2023-12-14T12:39:10;13.70;;;7.38;;
76475;SDS011;65308;50.078;14.854;2023-12-14T12:41:37;12.70;;;6.90;;
76475;SDS011;65308;50.078;14.854;2023-12-14T12:44:03;14.20;;;7.32;;
76475;SDS011;65308;50.078;14.854;2023-12-14T12:46:33;12.40;;;6.40;;
76475;SDS011;65308;50.078;14.854;2023-12-14T12:49:00;12.25;;;5.75;;
76475;SDS011;65308;50.078;14.854;2023-12-14T12:51:28;13.93;;;6.53;;
76475;SDS011;65308;50.078;14.854;2023-12-14T12:53:55;10.18;;;5.80;;
76475;SDS011;65308;50.078;14.854;2023-12-14T12:56:22;12.00;;;6.05;;
76475;SDS011;65308;50.078;14.854;2023-12-14T12:58:48;12.15;;;6.03;;
76475;SDS011;65308;50.078;14.854;2023-12-14T13:01:17;13.48;;;7.82;;
76475;SDS011;65308;50.078;14.854;2023-12-14T13:03:43;14.68;;;6.97;;
76475;SDS011;65308;50.078;14.854;2023-12-14T13:06:10;13.00;;;7.85;;
76475;SDS011;65308;50.078;14.854;2023-12-14T13:08:38;13.65;;;7.00;;
76475;SDS011;65308;50.078;14.854;2023-12-14T13:13:30;12.32;;;6.50;;
76475;SDS011;65308;50.078;14.854;2023-12-14T13:15:57;13.93;;;7.50;;
76475;SDS011;65308;50.078;14.854;2023-12-14T13:18:23;11.57;;;6.60;;
76475;SDS011;65308;50.078;14.854;2023-12-14T13:20:50;14.82;;;7.85;;
76475;SDS011;65308;50.078;14.854;2023-12-14T13:23:16;15.23;;;7.55;;
76475;SDS011;65308;50.078;14.854;2023-12-14T13:25:44;13.30;;;6.70;;
76475;SDS011;65308;50.078;14.854;2023-12-14T13:28:11;13.88;;;6.82;;
76475;SDS011;65308;50.078;14.854;2023-12-14T13:30:37;12.00;;;6.80;;
76475;SDS011;65308;50.078;14.854;2023-12-14T13:33:04;14.07;;;7.13;;
76475;SDS011;65308;50.078;14.854;2023-12-14T13:35:31;14.45;;;7.00;;
76475;SDS011;65308;50.078;14.854;2023-12-14T13:37:58;13.20;;;6.72;;
76475;SDS011;65308;50.078;14.854;2023-12-14T13:40:24;12.52;;;6.57;;
76475;SDS011;65308;50.078;14.854;2023-12-14T13:42:52;13.85;;;7.07;;
76475;SDS011;65308;50.078;14.854;2023-12-14T13:47:45;12.50;;;6.45;;
76475;SDS011;65308;50.078;14.854;2023-12-14T13:50:12;11.50;;;6.55;;
76475;SDS011;65308;50.078;14.854;2023-12-14T13:52:38;12.07;;;6.57;;
76475;SDS011;65308;50.078;14.854;2023-12-14T13:55:05;11.95;;;5.85;;
76475;SDS011;65308;50.078;14.854;2023-12-14T13:57:31;14.68;;;6.90;;
76475;SDS011;65308;50.078;14.854;2023-12-14T13:59:59;12.80;;;6.40;;
76475;SDS011;65308;50.078;14.854;2023-12-14T14:04:53;12.30;;;5.82;;
76475;SDS011;65308;50.078;14.854;2023-12-14T14:07:20;12.18;;;6.28;;
76475;SDS011;65308;50.078;14.854;2023-12-14T14:09:47;12.98;;;5.72;;
76475;SDS011;65308;50.078;14.854;2023-12-14T14:12:14;8.70;;;4.70;;
76475;SDS011;65308;50.078;14.854;2023-12-14T14:14:41;8.95;;;4.68;;
76475;SDS011;65308;50.078;14.854;2023-12-14T14:17:09;10.48;;;5.00;;
76475;SDS011;65308;50.078;14.854;2023-12-14T14:19:36;8.07;;;4.13;;
76475;SDS011;65308;50.078;14.854;2023-12-14T14:22:02;7.22;;;3.75;;
76475;SDS011;65308;50.078;14.854;2023-12-14T14:24:29;7.18;;;3.92;;
76475;SDS011;65308;50.078;14.854;2023-12-14T14:26:56;6.45;;;3.30;;
76475;SDS011;65308;50.078;14.854;2023-12-14T14:29:23;4.93;;;3.00;;
76475;SDS011;65308;50.078;14.854;2023-12-14T14:31:49;5.57;;;2.70;;
76475;SDS011;65308;50.078;14.854;2023-12-14T14:34:17;4.82;;;2.58;;
76475;SDS011;65308;50.078;14.854;2023-12-14T14:39:10;4.50;;;2.30;;
76475;SDS011;65308;50.078;14.854;2023-12-14T14:41:37;5.82;;;2.60;;
76475;SDS011;65308;50.078;14.854;2023-12-14T14:44:04;5.18;;;2.50;;
76475;SDS011;65308;50.078;14.854;2023-12-14T14:46:31;3.88;;;2.10;;
76475;SDS011;65308;50.078;14.854;2023-12-14T14:48:57;4.88;;;2.63;;
76475;SDS011;65308;50.078;14.854;2023-12-14T14:51:27;4.50;;;2.63;;
76475;SDS011;65308;50.078;14.854;2023-12-14T14:53:55;4.60;;;2.50;;
76475;SDS011;65308;50.078;14.854;2023-12-14T14:56:21;5.20;;;2.22;;
76475;SDS011;65308;50.078;14.854;2023-12-14T14:58:48;5.75;;;2.65;;
76475;SDS011;65308;50.078;14.854;2023-12-14T15:01:14;5.40;;;2.35;;
76475;SDS011;65308;50.078;14.854;2023-12-14T15:03:40;4.75;;;2.47;;
76475;SDS011;65308;50.078;14.854;2023-12-14T15:06:07;5.15;;;2.22;;
76475;SDS011;65308;50.078;14.854;2023-12-14T15:08:35;3.47;;;2.05;;
76475;SDS011;65308;50.078;14.854;2023-12-14T15:11:01;4.25;;;2.38;;
76475;SDS011;65308;50.078;14.854;2023-12-14T15:13:28;4.30;;;2.15;;
76475;SDS011;65308;50.078;14.854;2023-12-14T15:15:55;2.97;;;1.95;;